sensor_id;sensor_type;location;lat;lon;timestamp;pressure;altitude;pressure_sealevel;temperature;humidity
21276;BME280;36472;52.170;20.884;2023-02-12T00:01:50;101717.03;;;4.08;69.40
21276;BME280;36472;52.170;20.884;2023-02-12T00:04:19;101720.69;;;3.98;69.25
21276;BME280;36472;52.170;20.884;2023-02-12T00:06:48;101724.16;;;3.97;69.30
21276;BME280;36472;52.170;20.884;2023-02-12T00:09:17;101718.97;;;3.96;68.96
21276;BME280;36472;52.170;20.884;2023-02-12T00:11:47;101733.84;;;3.86;69.93
21276;BME280;36472;52.170;20.884;2023-02-12T00:14:16;101728.66;;;3.86;69.22
21276;BME280;36472;52.170;20.884;2023-02-12T00:16:45;101736.47;;;3.84;69.51
21276;BME280;36472;52.170;20.884;2023-02-12T00:19:14;101737.38;;;3.83;69.74
21276;BME280;36472;52.170;20.884;2023-02-12T00:21:43;101749.59;;;3.80;69.67
21276;BME280;36472;52.170;20.884;2023-02-12T00:24:12;101766.00;;;3.83;70.07
21276;BME280;36472;52.170;20.884;2023-02-12T00:26:41;101765.16;;;3.83;69.87
21276;BME280;36472;52.170;20.884;2023-02-12T00:29:11;101777.22;;;3.87;69.77
21276;BME280;36472;52.170;20.884;2023-02-12T00:31:40;101782.41;;;3.87;69.30
21276;BME280;36472;52.170;20.884;2023-02-12T00:34:10;101777.44;;;3.71;69.64
21276;BME280;36472;52.170;20.884;2023-02-12T00:36:40;101783.47;;;3.73;69.64
21276;BME280;36472;52.170;20.884;2023-02-12T00:39:10;101780.22;;;3.59;69.70
21276;BME280;36472;52.170;20.884;2023-02-12T00:41:39;101782.03;;;3.54;69.52
21276;BME280;36472;52.170;20.884;2023-02-12T00:44:08;101786.28;;;3.58;69.06
21276;BME280;36472;52.170;20.884;2023-02-12T00:46:39;101792.38;;;3.57;69.02
21276;BME280;36472;52.170;20.884;2023-02-12T00:49:08;101799.31;;;3.56;69.11
21276;BME280;36472;52.170;20.884;2023-02-12T00:51:37;101810.63;;;3.52;69.02
21276;BME280;36472;52.170;20.884;2023-02-12T00:54:08;101811.50;;;3.53;68.92
21276;BME280;36472;52.170;20.884;2023-02-12T00:56:37;101815.06;;;3.46;68.70
21276;BME280;36472;52.170;20.884;2023-02-12T00:59:07;101803.78;;;3.47;68.32
21276;BME280;36472;52.170;20.884;2023-02-12T01:01:36;101818.50;;;3.48;68.82
21276;BME280;36472;52.170;20.884;2023-02-12T01:04:06;101808.03;;;3.52;68.45
21276;BME280;36472;52.170;20.884;2023-02-12T01:06:35;101815.00;;;3.50;68.84
21276;BME280;36472;52.170;20.884;2023-02-12T01:09:04;101826.22;;;3.54;68.22
21276;BME280;36472;52.170;20.884;2023-02-12T01:11:33;101835.78;;;3.52;67.69
21276;BME280;36472;52.170;20.884;2023-02-12T01:14:03;101828.00;;;3.52;67.72
21276;BME280;36472;52.170;20.884;2023-02-12T01:16:32;101845.25;;;3.56;68.10
21276;BME280;36472;52.170;20.884;2023-02-12T01:19:04;101840.94;;;3.53;67.54
21276;BME280;36472;52.170;20.884;2023-02-12T01:21:34;101836.69;;;3.48;67.51
21276;BME280;36472;52.170;20.884;2023-02-12T01:24:04;101849.66;;;3.49;67.39
21276;BME280;36472;52.170;20.884;2023-02-12T01:26:33;101854.03;;;3.47;67.21
21276;BME280;36472;52.170;20.884;2023-02-12T01:29:05;101857.59;;;3.40;68.21
21276;BME280;36472;52.170;20.884;2023-02-12T01:31:38;101860.97;;;3.47;67.04
21276;BME280;36472;52.170;20.884;2023-02-12T01:34:09;101859.22;;;3.49;67.31
21276;BME280;36472;52.170;20.884;2023-02-12T01:36:39;101870.50;;;3.46;66.79
21276;BME280;36472;52.170;20.884;2023-02-12T01:39:11;101868.06;;;3.31;66.68
21276;BME280;36472;52.170;20.884;2023-02-12T01:41:42;101869.69;;;3.41;66.76
21276;BME280;36472;52.170;20.884;2023-02-12T01:44:18;101861.97;;;3.36;66.81
21276;BME280;36472;52.170;20.884;2023-02-12T01:46:49;101869.66;;;3.43;66.96
21276;BME280;36472;52.170;20.884;2023-02-12T01:49:27;101874.84;;;3.46;66.83
21276;BME280;36472;52.170;20.884;2023-02-12T01:52:07;101873.09;;;3.45;66.41
21276;BME280;36472;52.170;20.884;2023-02-12T01:54:40;101869.63;;;3.47;66.53
21276;BME280;36472;52.170;20.884;2023-02-12T01:57:12;101874.03;;;3.41;66.62
21276;BME280;36472;52.170;20.884;2023-02-12T01:59:45;101888.69;;;3.45;66.63
21276;BME280;36472;52.170;20.884;2023-02-12T02:02:19;101886.06;;;3.49;66.92
21276;BME280;36472;52.170;20.884;2023-02-12T02:04:54;101895.53;;;3.53;66.70
21276;BME280;36472;52.170;20.884;2023-02-12T02:07:27;101901.59;;;3.55;66.18
21276;BME280;36472;52.170;20.884;2023-02-12T02:09:57;101910.22;;;3.58;66.84
21276;BME280;36472;52.170;20.884;2023-02-12T02:12:29;101911.09;;;3.58;66.36
21276;BME280;36472;52.170;20.884;2023-02-12T02:15:17;101908.47;;;3.58;65.52
21276;BME280;36472;52.170;20.884;2023-02-12T02:17:54;101916.28;;;3.58;64.80
21276;BME280;36472;52.170;20.884;2023-02-12T02:21:18;101928.44;;;3.56;65.19
21276;BME280;36472;52.170;20.884;2023-02-12T02:24:54;101929.31;;;3.55;65.23
21276;BME280;36472;52.170;20.884;2023-02-12T02:27:39;101925.03;;;3.52;65.61
21276;BME280;36472;52.170;20.884;2023-02-12T02:30:38;101939.66;;;3.60;65.18
21276;BME280;36472;52.170;20.884;2023-02-12T02:33:28;101948.41;;;3.55;65.22
21276;BME280;36472;52.170;20.884;2023-02-12T02:36:16;101964.81;;;3.61;65.48
21276;BME280;36472;52.170;20.884;2023-02-12T02:38:52;101960.47;;;3.58;64.61
21276;BME280;36472;52.170;20.884;2023-02-12T02:41:29;101960.59;;;3.50;64.67
21276;BME280;36472;52.170;20.884;2023-02-12T02:44:08;101965.00;;;3.41;64.93
21276;BME280;36472;52.170;20.884;2023-02-12T02:46:46;101978.00;;;3.42;64.89
21276;BME280;36472;52.170;20.884;2023-02-12T02:49:20;101973.63;;;3.44;65.42
21276;BME280;36472;52.170;20.884;2023-02-12T02:52:00;101975.28;;;3.51;65.44
21276;BME280;36472;52.170;20.884;2023-02-12T02:54:35;101981.31;;;3.53;64.90
21276;BME280;36472;52.170;20.884;2023-02-12T02:57:10;101998.66;;;3.53;65.22
21276;BME280;36472;52.170;20.884;2023-02-12T02:59:45;101996.06;;;3.53;65.43
21276;BME280;36472;52.170;20.884;2023-02-12T03:02:24;102008.22;;;3.52;64.75
21276;BME280;36472;52.170;20.884;2023-02-12T03:05:02;102010.03;;;3.43;64.10
21276;BME280;36472;52.170;20.884;2023-02-12T03:07:36;102018.78;;;3.35;63.81
21276;BME280;36472;52.170;20.884;2023-02-12T03:10:13;102033.44;;;3.40;64.45
21276;BME280;36472;52.170;20.884;2023-02-12T03:12:51;102036.94;;;3.42;63.98
21276;BME280;36472;52.170;20.884;2023-02-12T03:15:31;102047.34;;;3.40;63.51
21276;BME280;36472;52.170;20.884;2023-02-12T03:18:07;102057.75;;;3.39;63.24
21276;BME280;36472;52.170;20.884;2023-02-12T03:20:44;102064.72;;;3.32;62.99
21276;BME280;36472;52.170;20.884;2023-02-12T03:23:22;102067.34;;;3.30;63.53
21276;BME280;36472;52.170;20.884;2023-02-12T03:25:58;102067.38;;;3.26;63.92
21276;BME280;36472;52.170;20.884;2023-02-12T03:28:34;102077.78;;;3.24;64.88
21276;BME280;36472;52.170;20.884;2023-02-12T03:31:13;102066.47;;;3.30;63.30
21276;BME280;36472;52.170;20.884;2023-02-12T03:34:03;102074.28;;;3.30;63.13
21276;BME280;36472;52.170;20.884;2023-02-12T03:36:43;102086.50;;;3.17;63.16
21276;BME280;36472;52.170;20.884;2023-02-12T03:39:24;102090.78;;;3.23;63.55
21276;BME280;36472;52.170;20.884;2023-02-12T03:42:04;102099.38;;;3.29;63.68
21276;BME280;36472;52.170;20.884;2023-02-12T03:44:47;102095.88;;;3.36;62.66
21276;BME280;36472;52.170;20.884;2023-02-12T03:47:25;102098.41;;;3.43;62.94
21276;BME280;36472;52.170;20.884;2023-02-12T03:50:02;102100.16;;;3.44;62.96
21276;BME280;36472;52.170;20.884;2023-02-12T03:52:35;102107.88;;;3.51;63.08
21276;BME280;36472;52.170;20.884;2023-02-12T03:55:05;102114.81;;;3.49;63.32
21276;BME280;36472;52.170;20.884;2023-02-12T03:57:40;102129.56;;;3.50;63.56
21276;BME280;36472;52.170;20.884;2023-02-12T04:00:16;102131.25;;;3.53;63.44
21276;BME280;36472;52.170;20.884;2023-02-12T04:02:47;102134.69;;;3.58;63.57
21276;BME280;36472;52.170;20.884;2023-02-12T04:05:22;102137.31;;;3.55;62.98
21276;BME280;36472;52.170;20.884;2023-02-12T04:07:53;102144.25;;;3.54;63.50
21276;BME280;36472;52.170;20.884;2023-02-12T04:10:33;102126.06;;;3.53;62.50
21276;BME280;36472;52.170;20.884;2023-02-12T04:13:10;102129.59;;;3.47;62.88
21276;BME280;36472;52.170;20.884;2023-02-12T04:16:08;102137.38;;;3.50;61.87
21276;BME280;36472;52.170;20.884;2023-02-12T04:18:44;102145.19;;;3.47;61.62
21276;BME280;36472;52.170;20.884;2023-02-12T04:21:35;102155.56;;;3.52;62.60
21276;BME280;36472;52.170;20.884;2023-02-12T04:24:16;102148.56;;;3.57;62.00
21276;BME280;36472;52.170;20.884;2023-02-12T04:26:53;102151.22;;;3.51;62.39
21276;BME280;36472;52.170;20.884;2023-02-12T04:29:31;102151.22;;;3.48;62.55
21276;BME280;36472;52.170;20.884;2023-02-12T04:32:11;102157.34;;;3.45;62.94
21276;BME280;36472;52.170;20.884;2023-02-12T04:34:49;102159.09;;;3.42;63.02
21276;BME280;36472;52.170;20.884;2023-02-12T04:37:25;102155.63;;;3.40;62.94
21276;BME280;36472;52.170;20.884;2023-02-12T04:39:58;102155.69;;;3.33;62.60
21276;BME280;36472;52.170;20.884;2023-02-12T04:42:28;102160.03;;;3.30;62.50
21276;BME280;36472;52.170;20.884;2023-02-12T04:44:57;102155.72;;;3.27;62.17
21276;BME280;36472;52.170;20.884;2023-02-12T04:47:26;102157.47;;;3.25;62.31
21276;BME280;36472;52.170;20.884;2023-02-12T04:49:55;102166.09;;;3.29;62.92
21276;BME280;36472;52.170;20.884;2023-02-12T04:52:25;102173.03;;;3.28;62.08
21276;BME280;36472;52.170;20.884;2023-02-12T04:54:54;102176.50;;;3.30;62.13
21276;BME280;36472;52.170;20.884;2023-02-12T04:57:23;102173.03;;;3.28;62.29
21276;BME280;36472;52.170;20.884;2023-02-12T04:59:52;102183.44;;;3.31;62.15
21276;BME280;36472;52.170;20.884;2023-02-12T05:02:21;102186.06;;;3.22;61.40
21276;BME280;36472;52.170;20.884;2023-02-12T05:04:50;102188.69;;;3.19;61.34
21276;BME280;36472;52.170;20.884;2023-02-12T05:07:19;102201.66;;;3.19;62.59
21276;BME280;36472;52.170;20.884;2023-02-12T05:09:50;102207.75;;;3.16;62.87
21276;BME280;36472;52.170;20.884;2023-02-12T05:12:19;102203.41;;;3.15;62.22
21276;BME280;36472;52.170;20.884;2023-02-12T05:14:48;102212.94;;;3.18;62.05
21276;BME280;36472;52.170;20.884;2023-02-12T05:17:17;102212.06;;;3.19;61.93
21276;BME280;36472;52.170;20.884;2023-02-12T05:19:47;102219.88;;;3.17;62.28
21276;BME280;36472;52.170;20.884;2023-02-12T05:22:16;102222.47;;;3.16;61.17
21276;BME280;36472;52.170;20.884;2023-02-12T05:24:45;102225.06;;;3.16;61.47
21276;BME280;36472;52.170;20.884;2023-02-12T05:27:15;102225.09;;;3.13;61.62
21276;BME280;36472;52.170;20.884;2023-02-12T05:29:44;102230.31;;;3.14;62.30
21276;BME280;36472;52.170;20.884;2023-02-12T05:32:13;102238.94;;;3.13;62.67
21276;BME280;36472;52.170;20.884;2023-02-12T05:34:42;102242.41;;;3.11;62.52
21276;BME280;36472;52.170;20.884;2023-02-12T05:37:11;102241.56;;;3.10;62.23
21276;BME280;36472;52.170;20.884;2023-02-12T05:39:40;102255.41;;;3.12;61.76
21276;BME280;36472;52.170;20.884;2023-02-12T05:42:09;102255.41;;;3.12;62.23
21276;BME280;36472;52.170;20.884;2023-02-12T05:44:39;102264.94;;;3.15;62.45
21276;BME280;36472;52.170;20.884;2023-02-12T05:47:08;102266.63;;;3.21;62.87
21276;BME280;36472;52.170;20.884;2023-02-12T05:49:37;102275.28;;;3.24;62.41
21276;BME280;36472;52.170;20.884;2023-02-12T05:52:06;102271.81;;;3.19;61.91
21276;BME280;36472;52.170;20.884;2023-02-12T05:54:35;102283.13;;;3.15;61.84
21276;BME280;36472;52.170;20.884;2023-02-12T05:57:06;102276.16;;;3.18;61.84
21276;BME280;36472;52.170;20.884;2023-02-12T05:59:35;102280.50;;;3.18;61.82
21276;BME280;36472;52.170;20.884;2023-02-12T06:02:05;102290.91;;;3.18;62.01
21276;BME280;36472;52.170;20.884;2023-02-12T06:04:34;102293.50;;;3.18;61.88
21276;BME280;36472;52.170;20.884;2023-02-12T06:07:03;102303.00;;;3.22;62.54
21276;BME280;36472;52.170;20.884;2023-02-12T06:09:34;102309.06;;;3.24;61.78
21276;BME280;36472;52.170;20.884;2023-02-12T06:12:03;102316.88;;;3.20;61.43
21276;BME280;36472;52.170;20.884;2023-02-12T06:14:32;102317.75;;;3.20;62.65
21276;BME280;36472;52.170;20.884;2023-02-12T06:17:01;102323.78;;;3.22;61.81
21276;BME280;36472;52.170;20.884;2023-02-12T06:19:32;102321.19;;;3.28;61.39
21276;BME280;36472;52.170;20.884;2023-02-12T06:22:01;102328.09;;;3.31;61.60
21276;BME280;36472;52.170;20.884;2023-02-12T06:24:30;102328.06;;;3.35;61.63
21276;BME280;36472;52.170;20.884;2023-02-12T06:26:59;102330.66;;;3.40;62.34
21276;BME280;36472;52.170;20.884;2023-02-12T06:29:28;102336.72;;;3.34;61.43
21276;BME280;36472;52.170;20.884;2023-02-12T06:31:57;102333.28;;;3.39;61.79
21276;BME280;36472;52.170;20.884;2023-02-12T06:34:26;102327.16;;;3.46;61.41
21276;BME280;36472;52.170;20.884;2023-02-12T06:36:56;102328.91;;;3.44;60.98
21276;BME280;36472;52.170;20.884;2023-02-12T06:39:26;102335.88;;;3.39;61.26
21276;BME280;36472;52.170;20.884;2023-02-12T06:41:54;102333.28;;;3.39;61.95
21276;BME280;36472;52.170;20.884;2023-02-12T06:44:24;102343.63;;;3.45;61.24
21276;BME280;36472;52.170;20.884;2023-02-12T06:46:52;102347.06;;;3.51;61.23
21276;BME280;36472;52.170;20.884;2023-02-12T06:49:22;102338.41;;;3.52;60.96
21276;BME280;36472;52.170;20.884;2023-02-12T06:51:50;102340.09;;;3.55;61.07
21276;BME280;36472;52.170;20.884;2023-02-12T06:54:21;102342.69;;;3.58;60.69
21276;BME280;36472;52.170;20.884;2023-02-12T06:56:50;102343.53;;;3.63;61.02
21276;BME280;36472;52.170;20.884;2023-02-12T06:59:19;102350.44;;;3.69;60.83
21276;BME280;36472;52.170;20.884;2023-02-12T07:01:47;102352.16;;;3.73;60.56
21276;BME280;36472;52.170;20.884;2023-02-12T07:04:17;102353.88;;;3.74;60.15
21276;BME280;36472;52.170;20.884;2023-02-12T07:06:45;102363.44;;;3.70;59.90
21276;BME280;36472;52.170;20.884;2023-02-12T07:09:15;102360.81;;;3.73;59.89
21276;BME280;36472;52.170;20.884;2023-02-12T07:11:45;102366.00;;;3.81;60.26
21276;BME280;36472;52.170;20.884;2023-02-12T07:14:15;102369.44;;;3.82;59.98
21276;BME280;36472;52.170;20.884;2023-02-12T07:16:44;102376.34;;;3.86;59.75
21276;BME280;36472;52.170;20.884;2023-02-12T07:19:13;102375.50;;;3.87;59.89
21276;BME280;36472;52.170;20.884;2023-02-12T07:21:43;102383.28;;;3.90;59.18
21276;BME280;36472;52.170;20.884;2023-02-12T07:24:13;102383.28;;;3.91;58.73
21276;BME280;36472;52.170;20.884;2023-02-12T07:26:42;102380.69;;;3.91;58.91
21276;BME280;36472;52.170;20.884;2023-02-12T07:29:13;102391.09;;;3.93;58.59
21276;BME280;36472;52.170;20.884;2023-02-12T07:31:42;102378.94;;;3.92;59.08
21276;BME280;36472;52.170;20.884;2023-02-12T07:34:11;102376.34;;;3.92;58.96
21276;BME280;36472;52.170;20.884;2023-02-12T07:36:40;102377.16;;;3.97;58.99
21276;BME280;36472;52.170;20.884;2023-02-12T07:39:10;102374.53;;;4.02;59.47
21276;BME280;36472;52.170;20.884;2023-02-12T07:41:39;102367.59;;;4.01;59.65
21276;BME280;36472;52.170;20.884;2023-02-12T07:44:12;102381.44;;;4.06;58.65
21276;BME280;36472;52.170;20.884;2023-02-12T07:46:43;102378.84;;;4.07;59.19
21276;BME280;36472;52.170;20.884;2023-02-12T07:49:18;102378.00;;;4.02;58.78
21276;BME280;36472;52.170;20.884;2023-02-12T07:51:48;102381.44;;;4.06;58.67
21276;BME280;36472;52.170;20.884;2023-02-12T07:54:18;102385.75;;;4.11;58.35
21276;BME280;36472;52.170;20.884;2023-02-12T07:56:47;102385.63;;;4.27;57.77
21276;BME280;36472;52.170;20.884;2023-02-12T07:59:19;102394.25;;;4.38;56.83
21276;BME280;36472;52.170;20.884;2023-02-12T08:01:50;102400.28;;;4.39;56.82
21276;BME280;36472;52.170;20.884;2023-02-12T08:04:22;102402.97;;;4.34;56.62
21276;BME280;36472;52.170;20.884;2023-02-12T08:06:54;102409.84;;;4.41;56.36
21276;BME280;36472;52.170;20.884;2023-02-12T08:09:26;102413.22;;;4.53;56.37
21276;BME280;36472;52.170;20.884;2023-02-12T08:11:57;102425.25;;;4.69;55.75
21276;BME280;36472;52.170;20.884;2023-02-12T08:14:28;102425.19;;;4.78;55.67
21276;BME280;36472;52.170;20.884;2023-02-12T08:16:57;102429.56;;;4.73;55.88
21276;BME280;36472;52.170;20.884;2023-02-12T08:19:26;102428.69;;;4.71;56.75
21276;BME280;36472;52.170;20.884;2023-02-12T08:21:56;102429.59;;;4.72;55.95
21276;BME280;36472;52.170;20.884;2023-02-12T08:24:25;102431.31;;;4.71;55.02
21276;BME280;36472;52.170;20.884;2023-02-12T08:26:55;102433.00;;;4.77;55.20
21276;BME280;36472;52.170;20.884;2023-02-12T08:29:28;102419.88;;;4.87;54.83
21276;BME280;36472;52.170;20.884;2023-02-12T08:32:00;102432.88;;;4.94;54.57
21276;BME280;36472;52.170;20.884;2023-02-12T08:34:32;102431.03;;;5.02;54.85
21276;BME280;36472;52.170;20.884;2023-02-12T08:37:03;102427.38;;;5.21;54.61
21276;BME280;36472;52.170;20.884;2023-02-12T08:39:33;102432.41;;;5.38;54.37
21276;BME280;36472;52.170;20.884;2023-02-12T08:42:02;102428.00;;;5.43;53.36
21276;BME280;36472;52.170;20.884;2023-02-12T08:44:32;102428.81;;;5.50;53.58
21276;BME280;36472;52.170;20.884;2023-02-12T08:47:02;102432.22;;;5.57;53.59
21276;BME280;36472;52.170;20.884;2023-02-12T08:49:32;102427.91;;;5.50;53.44
21276;BME280;36472;52.170;20.884;2023-02-12T08:52:01;102424.41;;;5.54;53.08
21276;BME280;36472;52.170;20.884;2023-02-12T08:54:30;102416.56;;;5.57;52.95
21276;BME280;36472;52.170;20.884;2023-02-12T08:57:01;102414.63;;;5.70;52.88
21276;BME280;36472;52.170;20.884;2023-02-12T08:59:32;102417.97;;;5.81;52.44
21276;BME280;36472;52.170;20.884;2023-02-12T09:02:01;102418.66;;;5.98;52.64
21276;BME280;36472;52.170;20.884;2023-02-12T09:04:35;102416.66;;;6.16;51.72
21276;BME280;36472;52.170;20.884;2023-02-12T09:07:04;102433.06;;;6.26;51.27
21276;BME280;36472;52.170;20.884;2023-02-12T09:09:37;102436.34;;;6.37;51.06
21276;BME280;36472;52.170;20.884;2023-02-12T09:12:06;102434.41;;;6.51;50.52
21276;BME280;36472;52.170;20.884;2023-02-12T09:14:37;102437.16;;;6.95;49.91
21276;BME280;36472;52.170;20.884;2023-02-12T09:17:06;102438.84;;;7.88;47.83
21276;BME280;36472;52.170;20.884;2023-02-12T09:19:35;102442.59;;;9.25;45.45
21276;BME280;36472;52.170;20.884;2023-02-12T09:22:03;102444.84;;;10.56;41.81
21276;BME280;36472;52.170;20.884;2023-02-12T09:24:33;102441.50;;;12.01;39.72
21276;BME280;36472;52.170;20.884;2023-02-12T09:27:02;102444.22;;;13.06;37.56
21276;BME280;36472;52.170;20.884;2023-02-12T09:29:31;102443.09;;;13.53;36.51
21276;BME280;36472;52.170;20.884;2023-02-12T09:32:01;102444.22;;;14.24;34.91
21276;BME280;36472;52.170;20.884;2023-02-12T09:34:34;102455.34;;;14.30;34.03
21276;BME280;36472;52.170;20.884;2023-02-12T09:37:03;102459.28;;;14.21;34.39
21276;BME280;36472;52.170;20.884;2023-02-12T09:39:32;102454.75;;;14.06;33.98
21276;BME280;36472;52.170;20.884;2023-02-12T09:42:28;102470.09;;;13.60;34.66
21276;BME280;36472;52.170;20.884;2023-02-12T09:45:10;102481.09;;;13.28;34.88
21276;BME280;36472;52.170;20.884;2023-02-12T09:47:54;102471.47;;;12.86;35.42
21276;BME280;36472;52.170;20.884;2023-02-12T09:50:38;102475.16;;;12.60;35.83
21276;BME280;36472;52.170;20.884;2023-02-12T09:53:14;102480.03;;;12.27;37.08
21276;BME280;36472;52.170;20.884;2023-02-12T09:55:44;102484.56;;;11.76;37.39
21276;BME280;36472;52.170;20.884;2023-02-12T09:58:20;102482.41;;;11.38;38.80
21276;BME280;36472;52.170;20.884;2023-02-12T10:00:52;102487.50;;;11.18;38.85
21276;BME280;36472;52.170;20.884;2023-02-12T10:03:23;102475.78;;;11.27;39.14
21276;BME280;36472;52.170;20.884;2023-02-12T10:06:00;102482.56;;;11.34;39.20
21276;BME280;36472;52.170;20.884;2023-02-12T10:08:58;102479.56;;;11.19;38.66
21276;BME280;36472;52.170;20.884;2023-02-12T10:11:50;102483.91;;;11.20;39.24
21276;BME280;36472;52.170;20.884;2023-02-12T10:14:59;102477.72;;;11.21;38.67
21276;BME280;36472;52.170;20.884;2023-02-12T10:17:39;102474.66;;;11.34;39.41
21276;BME280;36472;52.170;20.884;2023-02-12T10:20:56;102468.34;;;11.63;38.70
21276;BME280;36472;52.170;20.884;2023-02-12T10:24:04;102464.69;;;11.67;38.50
21276;BME280;36472;52.170;20.884;2023-02-12T10:26:43;102473.34;;;11.71;38.43
21276;BME280;36472;52.170;20.884;2023-02-12T10:29:19;102472.16;;;12.03;38.14
21276;BME280;36472;52.170;20.884;2023-02-12T10:31:54;102472.53;;;11.94;38.79
21276;BME280;36472;52.170;20.884;2023-02-12T10:34:31;102471.66;;;11.68;39.14
21276;BME280;36472;52.170;20.884;2023-02-12T10:37:09;102475.53;;;11.58;39.82
21276;BME280;36472;52.170;20.884;2023-02-12T10:39:46;102468.28;;;11.65;39.34
21276;BME280;36472;52.170;20.884;2023-02-12T10:42:23;102483.63;;;11.53;39.58
21276;BME280;36472;52.170;20.884;2023-02-12T10:44:53;102479.59;;;11.43;40.14
21276;BME280;36472;52.170;20.884;2023-02-12T10:47:23;102470.31;;;11.33;39.98
21276;BME280;36472;52.170;20.884;2023-02-12T10:49:58;102473.78;;;10.83;40.81
21276;BME280;36472;52.170;20.884;2023-02-12T10:52:38;102473.19;;;10.18;41.96
21276;BME280;36472;52.170;20.884;2023-02-12T10:55:28;102472.53;;;9.49;43.63
21276;BME280;36472;52.170;20.884;2023-02-12T10:57:59;102474.06;;;8.92;45.06
21276;BME280;36472;52.170;20.884;2023-02-12T11:00:31;102462.69;;;8.55;46.14
21276;BME280;36472;52.170;20.884;2023-02-12T11:03:05;102463.38;;;8.24;46.82
21276;BME280;36472;52.170;20.884;2023-02-12T11:05:47;102476.50;;;7.82;47.61
21276;BME280;36472;52.170;20.884;2023-02-12T11:08:33;102476.75;;;7.70;48.26
21276;BME280;36472;52.170;20.884;2023-02-12T11:11:07;102472.66;;;7.57;48.85
21276;BME280;36472;52.170;20.884;2023-02-12T11:13:42;102466.75;;;8.30;47.86
21276;BME280;36472;52.170;20.884;2023-02-12T11:16:12;102474.97;;;9.57;45.45
21276;BME280;36472;52.170;20.884;2023-02-12T11:18:41;102468.66;;;10.78;42.49
21276;BME280;36472;52.170;20.884;2023-02-12T11:21:12;102469.22;;;12.11;40.14
21276;BME280;36472;52.170;20.884;2023-02-12T11:23:43;102473.38;;;12.83;38.34
21276;BME280;36472;52.170;20.884;2023-02-12T11:26:26;102475.38;;;12.98;37.89
21276;BME280;36472;52.170;20.884;2023-02-12T11:28:57;102474.78;;;13.12;37.92
21276;BME280;36472;52.170;20.884;2023-02-12T11:31:29;102474.31;;;13.02;37.82
21276;BME280;36472;52.170;20.884;2023-02-12T11:34:14;102483.16;;;13.42;37.22
21276;BME280;36472;52.170;20.884;2023-02-12T11:36:48;102472.88;;;13.76;36.74
21276;BME280;36472;52.170;20.884;2023-02-12T11:39:23;102470.94;;;14.17;35.91
21276;BME280;36472;52.170;20.884;2023-02-12T11:41:57;102464.63;;;14.39;35.58
21276;BME280;36472;52.170;20.884;2023-02-12T11:44:32;102458.94;;;14.66;34.88
21276;BME280;36472;52.170;20.884;2023-02-12T11:47:06;102455.53;;;14.99;34.21
21276;BME280;36472;52.170;20.884;2023-02-12T11:49:40;102453.06;;;15.62;33.07
21276;BME280;36472;52.170;20.884;2023-02-12T11:52:19;102452.69;;;16.02;32.10
21276;BME280;36472;52.170;20.884;2023-02-12T11:54:54;102447.59;;;15.99;31.86
21276;BME280;36472;52.170;20.884;2023-02-12T11:57:35;102455.09;;;16.06;31.96
21276;BME280;36472;52.170;20.884;2023-02-12T12:00:13;102455.09;;;16.69;31.31
21276;BME280;36472;52.170;20.884;2023-02-12T12:02:57;102460.47;;;17.13;30.31
21276;BME280;36472;52.170;20.884;2023-02-12T12:05:35;102459.41;;;17.73;29.59
21276;BME280;36472;52.170;20.884;2023-02-12T12:08:14;102447.56;;;18.21;28.63
21276;BME280;36472;52.170;20.884;2023-02-12T12:10:53;102446.06;;;18.17;28.71
21276;BME280;36472;52.170;20.884;2023-02-12T12:13:31;102452.31;;;16.56;30.66
21276;BME280;36472;52.170;20.884;2023-02-12T12:16:08;102457.53;;;15.11;32.93
21276;BME280;36472;52.170;20.884;2023-02-12T12:19:05;102457.25;;;14.09;34.63
21276;BME280;36472;52.170;20.884;2023-02-12T12:22:03;102456.03;;;13.18;35.64
21276;BME280;36472;52.170;20.884;2023-02-12T12:24:42;102447.84;;;12.19;37.22
21276;BME280;36472;52.170;20.884;2023-02-12T12:27:26;102436.72;;;11.87;38.85
21276;BME280;36472;52.170;20.884;2023-02-12T12:30:26;102419.22;;;12.09;37.92
21276;BME280;36472;52.170;20.884;2023-02-12T12:33:04;102427.41;;;11.78;37.81
21276;BME280;36472;52.170;20.884;2023-02-12T12:35:44;102432.91;;;10.98;39.56
21276;BME280;36472;52.170;20.884;2023-02-12T12:38:34;102432.38;;;10.35;41.12
21276;BME280;36472;52.170;20.884;2023-02-12T12:41:22;102434.59;;;9.61;42.68
21276;BME280;36472;52.170;20.884;2023-02-12T12:44:13;102425.88;;;8.94;44.15
21276;BME280;36472;52.170;20.884;2023-02-12T12:47:02;102427.72;;;8.17;44.76
21276;BME280;36472;52.170;20.884;2023-02-12T12:49:57;102422.47;;;7.78;45.82
21276;BME280;36472;52.170;20.884;2023-02-12T12:56:12;102419.50;;;7.08;48.21
21276;BME280;36472;52.170;20.884;2023-02-12T12:59:15;102418.06;;;6.90;48.96
21276;BME280;36472;52.170;20.884;2023-02-12T13:08:36;102424.22;;;6.34;51.57
21276;BME280;36472;52.170;20.884;2023-02-12T13:11:22;102416.63;;;6.19;52.08
21276;BME280;36472;52.170;20.884;2023-02-12T13:14:12;102405.44;;;6.08;52.81
21276;BME280;36472;52.170;20.884;2023-02-12T13:16:50;102411.78;;;5.88;53.44
21276;BME280;36472;52.170;20.884;2023-02-12T13:19:37;102416.97;;;5.91;53.82
21276;BME280;36472;52.170;20.884;2023-02-12T13:22:20;102409.13;;;5.94;54.32
21276;BME280;36472;52.170;20.884;2023-02-12T13:25:02;102416.88;;;5.99;54.19
21276;BME280;36472;52.170;20.884;2023-02-12T13:27:38;102415.97;;;6.05;53.67
21276;BME280;36472;52.170;20.884;2023-02-12T13:30:21;102420.41;;;5.95;54.34
21276;BME280;36472;52.170;20.884;2023-02-12T13:33:05;102422.34;;;5.79;54.98
21276;BME280;36472;52.170;20.884;2023-02-12T13:35:41;102420.66;;;5.76;55.39
21276;BME280;36472;52.170;20.884;2023-02-12T13:38:19;102418.06;;;5.73;56.08